createdAt,value
2019-04-20T00:01:03.418Z,6.90
2019-04-20T00:03:38.119Z,6.80
2019-04-20T00:06:03.405Z,6.90
2019-04-20T00:08:36.097Z,6.90
2019-04-20T00:11:08.006Z,6.80
2019-04-20T00:13:43.830Z,6.80
2019-04-20T00:16:04.030Z,6.70
2019-04-20T00:18:39.221Z,6.70
2019-04-20T00:21:21.123Z,6.80
2019-04-20T00:23:51.098Z,6.90
2019-04-20T00:26:43.942Z,6.90
2019-04-20T00:29:13.848Z,6.80
2019-04-20T00:31:38.036Z,6.70
2019-04-20T00:34:06.163Z,6.60
2019-04-20T00:36:26.287Z,6.70
2019-04-20T00:38:59.753Z,6.50
2019-04-20T00:41:25.934Z,6.50
2019-04-20T00:43:57.788Z,6.40
2019-04-20T00:46:35.496Z,6.40
2019-04-20T00:49:01.583Z,6.30
2019-04-20T00:51:39.547Z,6.30
2019-04-20T00:53:57.293Z,6.40
2019-04-20T00:56:26.508Z,6.30
2019-04-20T00:59:09.288Z,6.30
2019-04-20T01:01:49.737Z,6.20
2019-04-20T01:04:15.072Z,6.00
2019-04-20T01:06:46.289Z,5.90
2019-04-20T01:09:09.925Z,5.80
2019-04-20T01:11:42.200Z,5.80
2019-04-20T01:14:12.305Z,5.90
2019-04-20T01:16:47.382Z,6.00
2019-04-20T01:19:09.815Z,6.00
2019-04-20T01:21:38.443Z,6.20
2019-04-20T01:24:08.835Z,6.10
2019-04-20T01:26:44.616Z,6.20
2019-04-20T01:29:20.191Z,6.30
2019-04-20T01:31:55.721Z,6.30
2019-04-20T01:34:26.659Z,6.20
2019-04-20T01:36:55.673Z,6.10
2019-04-20T01:39:18.405Z,5.90
2019-04-20T01:41:39.397Z,5.80
2019-04-20T01:44:09.080Z,5.80
2019-04-20T01:46:39.124Z,5.70
2019-04-20T01:49:15.082Z,5.70
2019-04-20T01:51:47.044Z,5.70
2019-04-20T01:54:23.542Z,5.70
2019-04-20T01:56:52.272Z,5.80
2019-04-20T01:59:23.048Z,5.90
2019-04-20T02:01:56.985Z,6.00
2019-04-20T02:04:27.170Z,6.10
2019-04-20T02:06:53.958Z,6.00
2019-04-20T02:09:24.029Z,6.00
2019-04-20T02:11:52.469Z,6.00
2019-04-20T02:14:28.661Z,6.00
2019-04-20T02:17:00.253Z,5.90
2019-04-20T02:19:34.672Z,5.90
2019-04-20T02:22:03.571Z,6.00
2019-04-20T02:24:21.787Z,5.90
2019-04-20T02:26:51.979Z,5.90
2019-04-20T02:29:43.033Z,5.80
2019-04-20T02:35:14.173Z,5.60
2019-04-20T02:37:56.788Z,5.70
2019-04-20T02:40:15.685Z,5.60
2019-04-20T02:45:33.295Z,5.50
2019-04-20T02:47:45.591Z,5.50
2019-04-20T02:50:20.606Z,5.50
2019-04-20T02:52:56.305Z,5.40
2019-04-20T02:55:14.372Z,5.40
2019-04-20T03:00:12.419Z,5.40
2019-04-20T03:02:31.304Z,5.30
2019-04-20T03:04:56.555Z,5.30
2019-04-20T03:07:31.612Z,5.20
2019-04-20T03:10:06.536Z,5.10
2019-04-20T03:12:38.786Z,5.10
2019-04-20T03:15:00.724Z,5.30
2019-04-20T03:17:38.717Z,5.20
2019-04-20T03:20:00.200Z,5.10
2019-04-20T03:22:51.219Z,5.00
2019-04-20T03:25:13.483Z,5.20
2019-04-20T03:27:37.204Z,5.40
2019-04-20T03:35:34.799Z,5.00
2019-04-20T03:38:04.661Z,5.00
2019-04-20T03:40:25.446Z,5.00
2019-04-20T03:42:42.889Z,4.90
2019-04-20T03:45:17.727Z,4.80
2019-04-20T03:47:57.142Z,4.90
2019-04-20T03:50:37.851Z,5.00
2019-04-20T03:53:10.000Z,5.00
2019-04-20T03:55:37.006Z,5.00
2019-04-20T03:58:14.051Z,4.90
2019-04-20T04:00:52.933Z,4.80
2019-04-20T04:03:49.884Z,4.80
2019-04-20T04:06:07.731Z,5.10
2019-04-20T04:08:32.857Z,5.10
2019-04-20T04:11:13.570Z,5.20
2019-04-20T04:13:25.002Z,5.10
2019-04-20T04:15:59.319Z,5.00
2019-04-20T04:18:31.847Z,5.00
2019-04-20T04:21:01.896Z,4.80
2019-04-20T04:23:47.371Z,4.80
2019-04-20T04:26:12.640Z,4.70
2019-04-20T04:28:45.078Z,4.60
2019-04-20T04:31:15.702Z,4.60
2019-04-20T04:36:13.837Z,4.50
2019-04-20T04:38:48.807Z,4.40
2019-04-20T04:43:46.489Z,4.50
2019-04-20T04:45:59.526Z,4.50
2019-04-20T04:48:34.668Z,4.70
2019-04-20T04:51:03.832Z,4.90
2019-04-20T04:53:41.711Z,5.20
2019-04-20T04:56:05.761Z,5.50
2019-04-20T04:58:29.807Z,5.70
2019-04-20T05:01:07.690Z,5.90
2019-04-20T05:03:44.744Z,6.00
2019-04-20T05:06:18.805Z,6.20
2019-04-20T05:08:39.637Z,6.20
2019-04-20T05:11:02.589Z,6.30
2019-04-20T05:13:38.010Z,6.30
2019-04-20T05:16:16.892Z,6.40
2019-04-20T05:18:59.170Z,6.40
2019-04-20T05:21:21.665Z,6.40
2019-04-20T05:23:47.721Z,6.60
2019-04-20T05:26:26.954Z,6.60
2019-04-20T05:28:50.650Z,6.60
2019-04-20T05:31:11.377Z,6.70
2019-04-20T05:34:03.568Z,6.80
2019-04-20T05:36:28.041Z,7.00
2019-04-20T05:39:09.217Z,7.10
2019-04-20T05:41:27.162Z,7.20
2019-04-20T05:43:59.678Z,7.40
2019-04-20T05:46:32.371Z,7.40
2019-04-20T05:49:13.401Z,7.50
2019-04-20T05:51:49.833Z,7.60
2019-04-20T05:54:07.182Z,7.80
2019-04-20T05:56:41.883Z,7.90
2019-04-20T05:59:04.823Z,8.00
2019-04-20T06:01:40.857Z,8.20
2019-04-20T06:04:01.645Z,8.30
2019-04-20T06:06:37.739Z,8.40
2019-04-20T06:09:11.997Z,8.50
2019-04-20T06:11:44.526Z,8.70
2019-04-20T06:14:08.027Z,8.80
2019-04-20T06:16:55.754Z,8.90
2019-04-20T06:19:32.034Z,9.00
2019-04-20T06:21:58.503Z,9.20
2019-04-20T06:24:38.053Z,9.40
2019-04-20T06:26:59.243Z,9.50
2019-04-20T06:29:23.638Z,9.60
2019-04-20T06:31:57.461Z,9.80
2019-04-20T06:34:33.137Z,9.80
2019-04-20T06:36:57.416Z,9.90
2019-04-20T06:42:10.786Z,10.20
2019-04-20T06:49:33.445Z,10.60
2019-04-20T06:52:25.966Z,10.70
2019-04-20T06:55:05.169Z,10.90
2019-04-20T06:57:43.200Z,11.00
2019-04-20T07:02:53.994Z,11.30
2019-04-20T07:05:13.001Z,11.40
2019-04-20T07:07:43.400Z,11.60
2019-04-20T07:12:36.931Z,11.80
2019-04-20T07:15:08.546Z,12.00
2019-04-20T07:17:55.142Z,12.10
2019-04-20T07:20:26.169Z,12.20
2019-04-20T07:23:11.567Z,12.40
2019-04-20T07:25:31.106Z,12.50
2019-04-20T07:27:59.474Z,12.70
2019-04-20T07:30:29.918Z,12.80
2019-04-20T07:35:31.502Z,13.10
2019-04-20T07:38:15.354Z,13.30
2019-04-20T07:40:29.158Z,13.30
2019-04-20T07:43:00.256Z,13.30
2019-04-20T07:50:29.519Z,13.70
2019-04-20T07:52:58.635Z,13.80
2019-04-20T07:55:47.775Z,13.90
2019-04-20T07:57:57.871Z,14.10
2019-04-20T08:03:28.406Z,14.30
2019-04-20T08:05:45.766Z,14.40
2019-04-20T08:08:27.130Z,14.50
2019-04-20T08:10:52.337Z,14.60
2019-04-20T08:13:32.952Z,14.60
2019-04-20T08:15:57.135Z,14.70
2019-04-20T08:18:27.409Z,14.70
2019-04-20T08:20:57.678Z,14.80
2019-04-20T08:23:23.245Z,14.80
2019-04-20T08:25:47.416Z,14.80
2019-04-20T08:28:16.472Z,15.00
2019-04-20T08:31:06.693Z,15.10
2019-04-20T08:33:45.048Z,15.00
2019-04-20T08:36:16.810Z,15.10
2019-04-20T08:39:07.030Z,15.20
2019-04-20T08:41:14.211Z,15.30
2019-04-20T08:46:16.270Z,15.40
2019-04-20T08:48:46.674Z,15.50
2019-04-20T08:51:13.804Z,15.40
2019-04-20T08:53:46.435Z,15.60
2019-04-20T08:56:10.937Z,15.60
2019-04-20T08:58:27.654Z,15.60
2019-04-20T09:01:01.621Z,15.60
2019-04-20T09:03:31.727Z,15.60
2019-04-20T09:06:06.729Z,15.70
2019-04-20T09:08:36.647Z,15.80
2019-04-20T09:11:15.637Z,15.80
2019-04-20T09:13:37.208Z,15.90
2019-04-20T09:15:59.858Z,16.00
2019-04-20T09:18:43.240Z,15.90
2019-04-20T09:21:19.131Z,16.00
2019-04-20T09:23:54.648Z,16.10
2019-04-20T09:26:29.767Z,16.10
2019-04-20T09:28:56.813Z,16.30
2019-04-20T09:31:43.329Z,16.40
2019-04-20T09:34:25.933Z,16.30
2019-04-20T09:37:09.507Z,16.40
2019-04-20T09:39:33.829Z,16.40
2019-04-20T09:42:09.813Z,16.60
2019-04-20T09:44:42.610Z,16.60
2019-04-20T09:47:10.399Z,16.60
2019-04-20T09:49:52.898Z,16.70
2019-04-20T09:52:20.724Z,16.90
2019-04-20T09:54:55.438Z,17.00
2019-04-20T09:57:30.617Z,17.00
2019-04-20T09:59:57.702Z,17.20
2019-04-20T10:02:16.890Z,17.20
2019-04-20T10:04:40.107Z,17.20
2019-04-20T10:07:14.202Z,17.30
2019-04-20T10:09:44.445Z,17.40
2019-04-20T10:12:09.246Z,17.50
2019-04-20T10:14:38.478Z,17.60
2019-04-20T10:17:07.742Z,17.50
2019-04-20T10:19:39.348Z,17.50
2019-04-20T10:22:06.660Z,17.50
2019-04-20T10:24:35.203Z,17.70
2019-04-20T10:27:03.795Z,17.80
2019-04-20T10:29:33.582Z,17.50
2019-04-20T10:32:06.988Z,17.70
2019-04-20T10:34:32.727Z,17.90
2019-04-20T10:37:03.884Z,17.90
2019-04-20T10:39:34.308Z,17.80
2019-04-20T10:42:04.279Z,17.80
2019-04-20T10:44:33.008Z,17.80
2019-04-20T10:47:02.886Z,18.00
2019-04-20T10:49:31.639Z,18.00
2019-04-20T10:52:00.458Z,18.10
2019-04-20T10:54:30.172Z,18.20
2019-04-20T10:56:59.438Z,18.20
2019-04-20T10:59:28.151Z,18.20
2019-04-20T11:01:58.000Z,18.20
2019-04-20T11:04:26.692Z,18.40
2019-04-20T11:06:56.518Z,18.50
2019-04-20T11:09:25.163Z,18.40
2019-04-20T11:11:54.438Z,18.50
2019-04-20T11:14:29.762Z,18.40
2019-04-20T11:16:54.280Z,18.30
2019-04-20T11:19:23.283Z,18.30
2019-04-20T11:21:52.362Z,18.50
2019-04-20T11:24:22.418Z,18.70
2019-04-20T11:26:52.087Z,18.70
2019-04-20T11:29:22.006Z,18.80
2019-04-20T11:31:53.999Z,18.80
2019-04-20T11:34:23.492Z,18.70
2019-04-20T11:36:51.030Z,18.80
2019-04-20T11:39:20.816Z,18.80
2019-04-20T11:41:49.786Z,18.80
2019-04-20T11:44:18.354Z,19.00
2019-04-20T11:46:46.809Z,18.90
2019-04-20T11:49:15.552Z,19.00
2019-04-20T11:51:45.457Z,19.10
2019-04-20T11:54:14.903Z,19.10
2019-04-20T11:56:46.845Z,19.10
2019-04-20T11:59:14.768Z,19.20
2019-04-20T12:02:01.999Z,19.10
2019-04-20T12:04:39.423Z,19.10
2019-04-20T12:06:59.225Z,19.10
2019-04-20T12:09:29.315Z,19.20
2019-04-20T12:12:09.270Z,19.30
2019-04-20T12:14:28.421Z,19.50
2019-04-20T12:16:57.624Z,19.60
2019-04-20T12:19:27.018Z,19.50
2019-04-20T12:21:55.886Z,19.40
2019-04-20T12:24:24.662Z,19.40
2019-04-20T12:26:54.357Z,19.60
2019-04-20T12:29:23.776Z,19.40
2019-04-20T12:31:55.392Z,19.40
2019-04-20T12:34:22.519Z,19.50
2019-04-20T12:36:51.234Z,19.20
2019-04-20T12:39:22.223Z,19.30
2019-04-20T12:41:56.093Z,19.50
2019-04-20T12:44:21.714Z,19.70
2019-04-20T12:46:50.399Z,19.60
2019-04-20T12:49:19.892Z,19.70
2019-04-20T12:51:54.732Z,19.60
2019-04-20T12:54:18.767Z,19.40
2019-04-20T12:56:48.661Z,19.60
2019-04-20T12:59:17.885Z,19.60
2019-04-20T13:01:47.095Z,19.70
2019-04-20T13:04:16.499Z,19.50
2019-04-20T13:06:46.900Z,19.50
2019-04-20T13:09:16.765Z,19.70
2019-04-20T13:12:09.953Z,19.80
2019-04-20T13:15:22.353Z,19.80
2019-04-20T13:17:52.518Z,19.90
2019-04-20T13:20:21.688Z,20.00
2019-04-20T13:22:50.928Z,20.00
2019-04-20T13:25:19.562Z,20.00
2019-04-20T13:27:49.311Z,19.90
2019-04-20T13:30:19.616Z,19.90
2019-04-20T13:32:48.270Z,19.70
2019-04-20T13:35:16.792Z,19.80
2019-04-20T13:37:46.793Z,19.90
2019-04-20T13:40:17.685Z,19.90
2019-04-20T13:42:47.621Z,20.00
2019-04-20T13:45:17.040Z,20.00
2019-04-20T13:47:45.826Z,19.90
2019-04-20T13:50:17.999Z,20.00
2019-04-20T13:52:46.895Z,20.10
2019-04-20T13:55:16.899Z,20.10
2019-04-20T13:57:49.807Z,20.00
2019-04-20T14:00:24.151Z,19.90
2019-04-20T14:03:11.058Z,20.00
2019-04-20T14:05:40.477Z,19.90
2019-04-20T14:08:09.675Z,20.00
2019-04-20T14:10:39.589Z,20.00
2019-04-20T14:13:13.663Z,20.00
2019-04-20T14:15:38.458Z,20.10
2019-04-20T14:18:07.071Z,20.20
2019-04-20T14:20:36.240Z,20.30
2019-04-20T14:23:05.324Z,20.30
2019-04-20T14:25:33.927Z,20.30
2019-04-20T14:28:02.820Z,20.40
2019-04-20T14:30:31.535Z,20.30
2019-04-20T14:33:01.052Z,20.30
2019-04-20T14:35:29.658Z,20.20
2019-04-20T14:37:59.614Z,20.40
2019-04-20T14:40:28.374Z,20.30
2019-04-20T14:42:58.299Z,20.20
2019-04-20T14:45:27.099Z,20.20
2019-04-20T14:47:55.555Z,20.20
2019-04-20T14:50:25.460Z,20.10
2019-04-20T14:52:55.506Z,20.10
2019-04-20T14:55:24.268Z,20.20
2019-04-20T14:57:53.256Z,20.20
2019-04-20T15:00:35.443Z,20.30
2019-04-20T15:03:22.004Z,20.10
2019-04-20T15:05:52.975Z,20.00
2019-04-20T15:08:23.239Z,20.10
2019-04-20T15:10:52.166Z,20.10
2019-04-20T15:13:20.804Z,20.00
2019-04-20T15:15:50.683Z,20.00
2019-04-20T15:18:21.846Z,20.00
2019-04-20T15:20:53.234Z,20.00
2019-04-20T15:23:25.972Z,19.90
2019-04-20T15:25:54.850Z,19.90
2019-04-20T15:28:24.155Z,19.80
2019-04-20T15:30:54.053Z,19.80
2019-04-20T15:33:23.067Z,19.90
2019-04-20T15:35:52.495Z,19.90
2019-04-20T15:38:21.136Z,19.70
2019-04-20T15:40:49.606Z,19.70
2019-04-20T15:43:21.606Z,19.70
2019-04-20T15:45:49.551Z,19.90
2019-04-20T15:48:19.766Z,20.20
2019-04-20T15:50:49.792Z,20.70
2019-04-20T15:53:19.712Z,21.20
2019-04-20T15:55:49.234Z,21.70
2019-04-20T15:58:18.593Z,22.00
2019-04-20T16:00:47.112Z,22.60
2019-04-20T16:03:27.488Z,22.90
2019-04-20T16:06:05.243Z,22.90
2019-04-20T16:08:38.736Z,23.10
2019-04-20T16:11:08.947Z,23.20
2019-04-20T16:13:41.989Z,23.10
2019-04-20T16:16:08.074Z,23.30
2019-04-20T16:18:37.032Z,23.30
2019-04-20T16:21:11.653Z,23.60
2019-04-20T16:23:38.783Z,23.70
2019-04-20T16:26:25.898Z,23.80
2019-04-20T16:28:55.505Z,23.90
2019-04-20T16:31:24.524Z,23.60
2019-04-20T16:33:55.576Z,23.50
2019-04-20T16:36:23.495Z,23.80
2019-04-20T16:38:53.190Z,23.60
2019-04-20T16:41:22.272Z,23.50
2019-04-20T16:43:51.629Z,23.60
2019-04-20T16:46:23.453Z,23.10
2019-04-20T16:48:50.489Z,23.20
2019-04-20T16:51:19.036Z,23.00
2019-04-20T16:53:47.951Z,22.80
2019-04-20T16:56:19.001Z,22.90
2019-04-20T16:58:49.581Z,22.80
2019-04-20T17:01:17.241Z,22.70
2019-04-20T17:03:56.660Z,22.20
2019-04-20T17:06:16.178Z,21.80
2019-04-20T17:08:46.031Z,21.90
2019-04-20T17:11:15.995Z,21.70
2019-04-20T17:13:49.686Z,21.20
2019-04-20T17:16:15.589Z,20.50
2019-04-20T17:18:47.891Z,19.80
2019-04-20T17:21:23.250Z,18.60
2019-04-20T17:23:47.028Z,17.70
2019-04-20T17:26:17.235Z,16.90
2019-04-20T17:28:57.637Z,16.50
2019-04-20T17:31:33.747Z,16.20
2019-04-20T17:34:17.170Z,16.00
2019-04-20T17:36:35.368Z,15.70
2019-04-20T17:39:08.772Z,15.50
2019-04-20T17:41:59.300Z,15.30
2019-04-20T17:44:20.959Z,15.00
2019-04-20T17:46:45.019Z,14.80
2019-04-20T17:49:24.348Z,14.60
2019-04-20T17:51:59.216Z,14.40
2019-04-20T17:54:22.903Z,14.10
2019-04-20T17:56:52.177Z,13.90
2019-04-20T17:59:22.214Z,13.70
2019-04-20T18:02:07.767Z,13.60
2019-04-20T18:05:02.453Z,13.50
2019-04-20T18:07:18.259Z,13.30
2019-04-20T18:09:53.406Z,13.20
2019-04-20T18:12:06.546Z,13.00
2019-04-20T18:14:45.949Z,12.90
2019-04-20T18:17:13.762Z,13.00
2019-04-20T18:19:36.688Z,12.90
2019-04-20T18:22:07.673Z,12.80
2019-04-20T18:25:02.704Z,12.70
2019-04-20T18:27:27.843Z,12.70
2019-04-20T18:29:55.304Z,12.50
2019-04-20T18:32:25.393Z,12.40
2019-04-20T18:35:00.843Z,12.20
2019-04-20T18:37:27.422Z,12.00
2019-04-20T18:40:03.075Z,11.90
2019-04-20T18:42:32.934Z,11.70
2019-04-20T18:45:12.489Z,11.70
2019-04-20T18:47:45.719Z,11.70
2019-04-20T18:50:07.693Z,11.60
2019-04-20T18:52:27.598Z,11.60
2019-04-20T18:54:57.492Z,11.50
2019-04-20T18:57:30.740Z,11.50
2019-04-20T18:59:57.227Z,11.40
2019-04-20T19:02:32.596Z,11.30
2019-04-20T19:04:59.713Z,11.10
2019-04-20T19:07:27.963Z,11.00
2019-04-20T19:10:02.578Z,10.90
2019-04-20T19:12:38.890Z,10.90
2019-04-20T19:15:12.041Z,10.90
2019-04-20T19:18:00.923Z,10.80
2019-04-20T19:20:25.533Z,10.60
2019-04-20T19:22:53.554Z,10.50
2019-04-20T19:25:26.091Z,10.40
2019-04-20T19:27:55.623Z,10.30
2019-04-20T19:30:34.214Z,10.20
2019-04-20T19:33:08.941Z,10.30
2019-04-20T19:35:39.713Z,10.10
2019-04-20T19:38:06.365Z,10.00
2019-04-20T19:40:38.563Z,9.90
2019-04-20T19:43:08.460Z,9.90
2019-04-20T19:45:46.624Z,9.90
2019-04-20T19:48:12.232Z,9.90
2019-04-20T19:50:53.128Z,9.90
2019-04-20T19:53:24.616Z,9.90
2019-04-20T19:55:42.977Z,9.70
2019-04-20T19:58:11.467Z,9.80
2019-04-20T20:00:51.217Z,9.70
2019-04-20T20:03:19.804Z,9.70
2019-04-20T20:05:50.895Z,9.50
2019-04-20T20:08:23.710Z,9.30
2019-04-20T20:10:50.646Z,9.30
2019-04-20T20:13:20.444Z,9.30
2019-04-20T20:15:52.627Z,9.10
2019-04-20T20:18:35.405Z,9.10
2019-04-20T20:21:04.981Z,9.10
2019-04-20T20:23:20.292Z,9.00
2019-04-20T20:25:50.109Z,9.00
2019-04-20T20:28:31.322Z,9.10
2019-04-20T20:31:03.376Z,9.00
2019-04-20T20:33:37.928Z,9.00
2019-04-20T20:35:58.309Z,8.90
2019-04-20T20:38:30.148Z,8.90
2019-04-20T20:40:58.827Z,8.80
2019-04-20T20:43:37.668Z,8.70
2019-04-20T20:46:06.551Z,8.50
2019-04-20T20:48:35.378Z,8.60
2019-04-20T20:51:12.184Z,8.60
2019-04-20T20:53:36.353Z,8.50
2019-04-20T20:56:01.813Z,8.40
2019-04-20T20:58:36.195Z,8.40
2019-04-20T21:00:57.575Z,8.40
2019-04-20T21:03:30.176Z,8.30
2019-04-20T21:05:53.634Z,8.20
2019-04-20T21:08:23.807Z,8.20
2019-04-20T21:10:52.724Z,8.20
2019-04-20T21:13:21.532Z,8.10
2019-04-20T21:15:57.583Z,8.20
2019-04-20T21:18:40.814Z,8.20
2019-04-20T21:21:06.156Z,8.20
2019-04-20T21:23:35.317Z,8.30
2019-04-20T21:26:10.739Z,8.30
2019-04-20T21:28:41.957Z,8.40
2019-04-20T21:31:15.890Z,8.40
2019-04-20T21:33:42.661Z,8.30
2019-04-20T21:36:13.528Z,8.20
2019-04-20T21:38:44.313Z,8.10
2019-04-20T21:41:16.523Z,7.90
2019-04-20T21:43:44.663Z,7.90
2019-04-20T21:46:14.021Z,7.70
2019-04-20T21:48:55.874Z,7.60
2019-04-20T21:51:24.392Z,7.60
2019-04-20T21:53:44.270Z,7.50
2019-04-20T21:56:12.919Z,7.60
2019-04-20T21:58:48.260Z,7.60
2019-04-20T22:01:22.218Z,7.60
2019-04-20T22:03:43.055Z,7.70
2019-04-20T22:06:11.748Z,7.70
2019-04-20T22:08:49.342Z,7.70
2019-04-20T22:11:11.584Z,7.60
2019-04-20T22:13:43.604Z,7.50
2019-04-20T22:16:12.674Z,7.40
2019-04-20T22:18:54.356Z,7.50
2019-04-20T22:21:21.742Z,7.60
2019-04-20T22:23:54.405Z,7.70
2019-04-20T22:26:24.063Z,7.70
2019-04-20T22:28:42.437Z,7.70
2019-04-20T22:31:11.962Z,7.70
2019-04-20T22:33:44.572Z,7.70
2019-04-20T22:36:13.083Z,7.70
2019-04-20T22:38:50.549Z,7.60
2019-04-20T22:41:18.043Z,7.50
2019-04-20T22:43:46.198Z,7.40
2019-04-20T22:46:17.506Z,7.40
2019-04-20T22:48:51.728Z,7.40
2019-04-20T22:51:31.221Z,7.40
2019-04-20T22:53:55.889Z,7.40
2019-04-20T22:56:34.134Z,7.30
2019-04-20T22:58:56.328Z,7.20
2019-04-20T23:01:27.708Z,7.10
2019-04-20T23:03:46.087Z,6.90
2019-04-20T23:06:14.648Z,6.80
2019-04-20T23:08:47.294Z,6.70
2019-04-20T23:11:23.073Z,6.70
2019-04-20T23:13:47.005Z,6.70
2019-04-20T23:16:15.370Z,6.70
2019-04-20T23:18:44.383Z,6.70
2019-04-20T23:21:16.079Z,6.80
2019-04-20T23:23:43.722Z,6.80
2019-04-20T23:26:12.562Z,6.70
2019-04-20T23:28:48.293Z,6.60
2019-04-20T23:31:18.353Z,6.40
2019-04-20T23:33:43.595Z,6.40
2019-04-20T23:36:12.347Z,6.40
2019-04-20T23:38:44.558Z,6.40
2019-04-20T23:41:10.979Z,6.60
2019-04-20T23:43:41.083Z,6.70
2019-04-20T23:46:24.649Z,6.80
2019-04-20T23:49:18.710Z,6.80
2019-04-20T23:51:59.152Z,6.60
2019-04-20T23:54:15.806Z,6.60
2019-04-20T23:56:39.749Z,6.60
2019-04-20T23:59:08.644Z,6.50
